Terminal Aerodrome Forecast
Issued by NWS Sterling, VA

Home | Current Version | Previous Version | Text Only | Print | Product List | Glossary On
Versions: 1 2 3 4 5 6 7 8 9 10 11 12 13 14 15 16 17 18 19 20 21 22 23 24 25 26 27 28 29 30 31 32 33
000
FTUS41 KLWX 252320
TAFCHO
TAF
KCHO 252320Z 2600/2624 25006KT P6SM SCT001 BKN130
      TEMPO 2600/2604 2SM BR BKN009
     FM260500 VRB03KT 5SM BR BKN130 OVC200
     FM261700 VRB03KT P6SM BKN025 BKN070=

USA.gov is the U.S. government's official web portal to all federal, state and local government web resources and services.